createdAt,value
2017-08-22T00:01:10.685Z,81.10
2017-08-22T00:03:40.162Z,82.00
2017-08-22T00:06:09.104Z,81.90
2017-08-22T00:08:38.934Z,81.60
2017-08-22T00:11:08.270Z,81.60
2017-08-22T00:13:37.144Z,81.80
2017-08-22T00:16:05.989Z,81.70
2017-08-22T00:18:34.917Z,81.30
2017-08-22T00:21:03.736Z,81.10
2017-08-22T00:23:33.144Z,81.10
2017-08-22T00:26:02.187Z,81.20
2017-08-22T00:28:31.219Z,81.40
2017-08-22T00:31:00.044Z,81.40
2017-08-22T00:33:28.873Z,81.40
2017-08-22T00:35:57.730Z,81.90
2017-08-22T00:38:26.744Z,81.70
2017-08-22T00:40:55.614Z,81.80
2017-08-22T00:43:24.749Z,81.50
2017-08-22T00:45:53.944Z,81.00
2017-08-22T00:48:23.295Z,81.10
2017-08-22T00:50:52.284Z,81.10
2017-08-22T00:53:21.279Z,80.90
2017-08-22T00:55:50.412Z,81.30
2017-08-22T00:58:19.737Z,81.90
2017-08-22T01:00:48.749Z,81.50
2017-08-22T01:03:17.837Z,81.50
2017-08-22T01:05:47.661Z,81.50
2017-08-22T01:08:16.688Z,81.50
2017-08-22T01:10:45.736Z,81.80
2017-08-22T01:13:14.760Z,82.40
2017-08-22T01:15:43.602Z,84.40
2017-08-22T01:18:12.583Z,85.90
2017-08-22T01:20:41.660Z,86.70
2017-08-22T01:23:10.601Z,87.90
2017-08-22T01:25:40.929Z,88.30
2017-08-22T01:28:10.925Z,88.10
2017-08-22T01:30:40.276Z,88.10
2017-08-22T01:33:09.598Z,88.60
2017-08-22T01:35:39.059Z,88.70
2017-08-22T01:38:08.943Z,89.00
2017-08-22T01:40:38.508Z,88.80
2017-08-22T01:43:08.333Z,88.60
2017-08-22T01:45:37.264Z,89.00
2017-08-22T01:48:06.406Z,89.20
2017-08-22T01:50:35.484Z,90.20
2017-08-22T01:53:04.322Z,89.90
2017-08-22T01:55:34.018Z,90.20
2017-08-22T01:58:02.882Z,90.20
2017-08-22T02:00:32.047Z,90.30
2017-08-22T02:03:01.189Z,90.30
2017-08-22T02:05:30.063Z,90.20
2017-08-22T02:07:59.363Z,90.50
2017-08-22T02:10:28.252Z,90.50
2017-08-22T02:12:57.120Z,90.60
2017-08-22T02:15:26.270Z,90.70
2017-08-22T02:17:55.088Z,90.80
2017-08-22T02:20:24.431Z,90.90
2017-08-22T02:22:53.525Z,91.10
2017-08-22T02:25:22.611Z,91.20
2017-08-22T02:27:51.707Z,91.30
2017-08-22T02:30:20.577Z,91.20
2017-08-22T02:32:49.489Z,91.40
2017-08-22T02:35:18.375Z,91.50
2017-08-22T02:37:47.717Z,91.40
2017-08-22T02:40:17.375Z,90.80
2017-08-22T02:42:46.277Z,90.80
2017-08-22T02:45:15.366Z,90.50
2017-08-22T02:47:44.679Z,90.50
2017-08-22T02:50:14.375Z,90.70
2017-08-22T02:52:43.881Z,90.50
2017-08-22T02:55:13.080Z,90.70
2017-08-22T02:57:41.940Z,90.60
2017-08-22T03:00:10.792Z,90.70
2017-08-22T03:02:39.928Z,90.70
2017-08-22T03:05:08.777Z,90.60
2017-08-22T03:07:38.565Z,90.90
2017-08-22T03:10:07.480Z,90.90
2017-08-22T03:12:36.804Z,90.70
2017-08-22T03:15:05.645Z,90.40
2017-08-22T03:17:34.543Z,90.00
2017-08-22T03:20:04.201Z,89.00
2017-08-22T03:22:33.217Z,89.00
2017-08-22T03:25:02.110Z,88.70
2017-08-22T03:27:31.331Z,88.10
2017-08-22T03:30:00.502Z,87.90
2017-08-22T03:32:29.808Z,88.70
2017-08-22T03:34:59.513Z,88.60
2017-08-22T03:37:28.517Z,88.60
2017-08-22T03:39:57.277Z,89.30
2017-08-22T03:42:26.295Z,90.20
2017-08-22T03:44:55.753Z,90.50
2017-08-22T03:47:24.900Z,90.60
2017-08-22T03:49:53.854Z,90.60
2017-08-22T03:52:22.801Z,90.60
2017-08-22T03:54:52.567Z,90.30
2017-08-22T03:57:21.598Z,90.30
2017-08-22T03:59:51.808Z,90.00
2017-08-22T04:02:21.918Z,89.50
2017-08-22T04:04:50.910Z,89.50
2017-08-22T04:07:19.841Z,88.70
2017-08-22T04:09:48.749Z,88.50
2017-08-22T04:12:17.661Z,88.00
2017-08-22T04:14:46.925Z,87.80
2017-08-22T04:17:15.792Z,86.90
2017-08-22T04:19:44.643Z,86.40
2017-08-22T04:22:13.569Z,86.10
2017-08-22T04:24:42.602Z,86.40
2017-08-22T04:27:11.897Z,86.40
2017-08-22T04:29:40.931Z,87.10
2017-08-22T04:32:09.944Z,87.70
2017-08-22T04:34:38.962Z,87.60
2017-08-22T04:37:08.160Z,87.30
2017-08-22T04:39:37.196Z,86.50
2017-08-22T04:42:06.155Z,86.00
2017-08-22T04:44:35.222Z,85.80
2017-08-22T04:47:04.246Z,85.90
2017-08-22T04:49:33.465Z,86.10
2017-08-22T04:52:02.471Z,86.10
2017-08-22T04:54:31.509Z,86.10
2017-08-22T04:57:00.759Z,85.80
2017-08-22T04:59:29.595Z,85.70
2017-08-22T05:01:58.671Z,85.50
2017-08-22T05:04:27.545Z,86.10
2017-08-22T05:06:57.302Z,85.70
2017-08-22T05:09:26.375Z,85.60
2017-08-22T05:11:55.196Z,85.40
2017-08-22T05:14:24.085Z,85.40
2017-08-22T05:16:53.276Z,86.50
2017-08-22T05:19:22.067Z,87.10
2017-08-22T05:21:50.927Z,87.30
2017-08-22T05:24:19.799Z,88.30
2017-08-22T05:26:48.800Z,88.30
2017-08-22T05:29:18.427Z,87.90
2017-08-22T05:31:47.474Z,87.10
2017-08-22T05:34:16.760Z,86.40
2017-08-22T05:36:45.734Z,85.60
2017-08-22T05:39:14.775Z,85.00
2017-08-22T05:41:44.851Z,84.30
2017-08-22T05:44:13.832Z,84.40
2017-08-22T05:46:42.722Z,83.20
2017-08-22T05:49:12.451Z,83.00
2017-08-22T05:51:43.403Z,83.00
2017-08-22T05:54:20.673Z,82.80
2017-08-22T05:56:49.824Z,82.80
2017-08-22T05:59:18.656Z,83.30
2017-08-22T06:01:47.472Z,82.90
2017-08-22T06:04:16.334Z,82.90
2017-08-22T06:06:45.192Z,83.10
2017-08-22T06:09:14.021Z,82.90
2017-08-22T06:11:43.189Z,82.60
2017-08-22T06:14:12.081Z,82.20
2017-08-22T06:16:41.260Z,82.60
2017-08-22T06:19:10.218Z,82.60
2017-08-22T06:21:39.028Z,81.60
2017-08-22T06:24:08.164Z,81.20
2017-08-22T06:26:37.035Z,81.60
2017-08-22T06:29:05.876Z,81.20
2017-08-22T06:31:36.570Z,80.70
2017-08-22T06:34:07.132Z,80.10
2017-08-22T06:36:37.010Z,80.10
2017-08-22T06:39:07.834Z,79.60
2017-08-22T06:41:38.954Z,78.30
2017-08-22T06:44:09.760Z,78.10
2017-08-22T06:46:38.670Z,77.90
2017-08-22T06:49:07.688Z,76.70
2017-08-22T06:51:37.086Z,76.30
2017-08-22T06:54:07.869Z,75.10
2017-08-22T06:56:37.648Z,75.00
2017-08-22T06:59:09.386Z,73.00
2017-08-22T07:01:38.230Z,73.00
2017-08-22T07:04:07.048Z,71.60
2017-08-22T07:06:36.016Z,71.00
2017-08-22T07:09:05.622Z,73.20
2017-08-22T07:11:34.835Z,73.80
2017-08-22T07:14:03.641Z,73.80
2017-08-22T07:18:31.089Z,74.00
2017-08-22T07:20:59.898Z,72.40
2017-08-22T07:23:29.490Z,71.80
2017-08-22T07:25:58.581Z,71.40
2017-08-22T07:28:27.737Z,71.30
2017-08-22T07:30:56.590Z,71.60
2017-08-22T07:33:25.475Z,71.50
2017-08-22T07:35:54.804Z,71.20
2017-08-22T07:38:23.744Z,70.60
2017-08-22T07:40:52.571Z,70.30
2017-08-22T07:43:21.613Z,69.90
2017-08-22T07:45:50.610Z,69.30
2017-08-22T07:48:19.619Z,69.00
2017-08-22T07:50:48.742Z,68.30
2017-08-22T07:53:18.464Z,68.20
2017-08-22T07:55:48.288Z,67.40
2017-08-22T07:59:46.925Z,67.30
2017-08-22T08:02:15.980Z,66.80
2017-08-22T08:04:45.377Z,64.60
2017-08-22T08:07:16.013Z,65.20
2017-08-22T08:09:44.964Z,64.60
2017-08-22T08:12:14.507Z,64.50
2017-08-22T08:14:44.168Z,64.40
2017-08-22T08:17:14.200Z,63.60
2017-08-22T08:19:43.598Z,63.00
2017-08-22T08:22:13.169Z,62.50
2017-08-22T08:24:43.942Z,61.50
2017-08-22T08:27:13.830Z,61.00
2017-08-22T08:29:42.712Z,61.10
2017-08-22T08:32:11.998Z,62.40
2017-08-22T08:34:40.886Z,61.20
2017-08-22T08:37:09.979Z,62.50
2017-08-22T08:39:38.938Z,62.60
2017-08-22T08:42:08.755Z,62.70
2017-08-22T08:44:37.639Z,61.10
2017-08-22T08:47:06.507Z,61.00
2017-08-22T08:49:35.879Z,61.00
2017-08-22T08:52:05.358Z,60.70
2017-08-22T08:54:34.406Z,60.90
2017-08-22T08:57:04.136Z,60.00
2017-08-22T08:59:34.132Z,60.00
2017-08-22T09:02:04.125Z,59.30
2017-08-22T09:04:33.100Z,59.30
2017-08-22T09:07:02.366Z,59.50
2017-08-22T09:09:31.427Z,59.90
2017-08-22T09:12:00.650Z,59.60
2017-08-22T09:14:30.131Z,58.40
2017-08-22T09:16:59.837Z,57.80
2017-08-22T09:19:29.743Z,58.00
2017-08-22T09:21:59.533Z,56.90
2017-08-22T09:24:28.589Z,56.90
2017-08-22T09:26:57.662Z,56.00
2017-08-22T09:29:28.827Z,55.20
2017-08-22T09:31:59.958Z,54.40
2017-08-22T09:34:29.515Z,55.20
2017-08-22T09:36:58.597Z,56.80
2017-08-22T09:39:28.382Z,54.60
2017-08-22T09:41:58.108Z,54.60
2017-08-22T09:44:33.676Z,55.10
2017-08-22T09:47:03.256Z,54.00
2017-08-22T09:49:32.307Z,54.60
2017-08-22T09:52:01.530Z,53.30
2017-08-22T09:54:30.830Z,52.30
2017-08-22T09:56:59.851Z,52.50
2017-08-22T09:59:29.124Z,52.00
2017-08-22T10:01:58.153Z,51.90
2017-08-22T10:04:27.162Z,52.20
2017-08-22T10:06:56.217Z,53.90
2017-08-22T10:09:25.396Z,52.80
2017-08-22T10:11:54.212Z,51.40
2017-08-22T10:14:23.304Z,51.40
2017-08-22T10:16:52.182Z,51.30
2017-08-22T10:19:21.048Z,51.20
2017-08-22T10:21:49.921Z,50.00
2017-08-22T10:24:19.607Z,49.30
2017-08-22T10:26:48.835Z,49.20
2017-08-22T10:29:17.757Z,50.00
2017-08-22T10:31:46.880Z,50.40
2017-08-22T10:34:16.085Z,50.80
2017-08-22T10:36:46.287Z,49.40
2017-08-22T10:39:15.077Z,49.30
2017-08-22T10:41:43.898Z,48.60
2017-08-22T10:44:13.534Z,47.00
2017-08-22T10:46:43.172Z,46.20
2017-08-22T10:49:12.090Z,46.10
2017-08-22T10:51:41.554Z,46.80
2017-08-22T10:54:10.422Z,46.60
2017-08-22T10:56:39.673Z,45.00
2017-08-22T10:59:09.471Z,46.40
2017-08-22T11:01:38.516Z,46.40
2017-08-22T11:04:07.457Z,46.00
2017-08-22T11:06:36.438Z,45.60
2017-08-22T11:09:05.777Z,46.10
2017-08-22T11:11:35.577Z,43.30
2017-08-22T11:14:04.531Z,43.30
2017-08-22T11:16:33.432Z,44.20
2017-08-22T11:19:02.302Z,43.10
2017-08-22T11:21:31.922Z,44.40
2017-08-22T11:24:00.781Z,44.30
2017-08-22T11:26:29.576Z,41.80
2017-08-22T11:28:58.776Z,42.70
2017-08-22T11:31:27.693Z,42.30
2017-08-22T11:33:56.608Z,41.40
2017-08-22T11:36:25.438Z,42.10
2017-08-22T11:38:54.494Z,43.30
2017-08-22T11:41:23.873Z,43.70
2017-08-22T11:43:56.245Z,45.00
2017-08-22T11:46:26.613Z,44.00
2017-08-22T11:48:55.617Z,44.00
2017-08-22T11:51:24.608Z,43.80
2017-08-22T11:53:53.565Z,45.30
2017-08-22T11:56:23.207Z,45.70
2017-08-22T11:58:57.339Z,45.70
2017-08-22T12:01:26.232Z,45.10
2017-08-22T12:03:55.082Z,45.20
2017-08-22T12:06:24.029Z,48.40
2017-08-22T12:08:53.141Z,47.00
2017-08-22T12:11:22.453Z,45.20
2017-08-22T12:13:52.226Z,40.10
2017-08-22T12:16:21.232Z,40.10
2017-08-22T12:18:50.610Z,41.00
2017-08-22T12:21:19.781Z,41.70
2017-08-22T12:23:48.989Z,41.30
2017-08-22T12:26:17.813Z,41.20
2017-08-22T12:28:46.719Z,42.40
2017-08-22T12:31:15.577Z,42.70
2017-08-22T12:33:44.685Z,42.90
2017-08-22T12:36:13.744Z,40.40
2017-08-22T12:38:43.671Z,39.60
2017-08-22T12:41:13.149Z,37.50
2017-08-22T12:43:42.432Z,37.10
2017-08-22T12:46:11.433Z,37.80
2017-08-22T12:48:40.519Z,36.70
2017-08-22T12:51:09.575Z,36.40
2017-08-22T12:53:39.134Z,36.20
2017-08-22T12:56:08.291Z,34.90
2017-08-22T12:58:38.286Z,35.50
2017-08-22T13:01:07.416Z,35.40
2017-08-22T13:03:37.165Z,34.90
2017-08-22T13:06:06.658Z,34.90
2017-08-22T13:08:35.846Z,33.00
2017-08-22T13:11:05.043Z,33.50
2017-08-22T13:13:33.979Z,32.90
2017-08-22T13:16:02.785Z,31.10
2017-08-22T13:18:31.731Z,30.70
2017-08-22T13:21:01.656Z,33.00
2017-08-22T13:23:31.030Z,33.50
2017-08-22T13:26:00.021Z,34.70
2017-08-22T13:28:29.936Z,33.00
2017-08-22T13:30:59.105Z,32.30
2017-08-22T13:33:28.935Z,34.50
2017-08-22T13:35:58.671Z,34.50
2017-08-22T13:38:27.878Z,34.30
2017-08-22T13:40:56.904Z,35.10
2017-08-22T13:43:26.693Z,34.10
2017-08-22T13:45:55.629Z,34.10
2017-08-22T13:48:25.106Z,34.60
2017-08-22T13:50:54.171Z,35.40
2017-08-22T13:53:23.263Z,34.40
2017-08-22T13:55:52.224Z,32.60
2017-08-22T13:58:21.555Z,32.00
2017-08-22T14:00:50.638Z,30.90
2017-08-22T14:03:19.710Z,32.10
2017-08-22T14:05:49.258Z,32.40
2017-08-22T14:08:18.191Z,33.50
2017-08-22T14:10:47.145Z,36.00
2017-08-22T14:13:16.646Z,37.10
2017-08-22T14:15:46.211Z,34.80
2017-08-22T14:18:16.781Z,34.50
2017-08-22T14:20:45.814Z,34.40
2017-08-22T14:23:15.821Z,33.20
2017-08-22T14:25:45.016Z,33.20
2017-08-22T14:28:14.826Z,34.10
2017-08-22T14:30:44.957Z,33.60
2017-08-22T14:33:14.765Z,33.50
2017-08-22T14:35:44.515Z,33.60
2017-08-22T14:38:13.726Z,34.20
2017-08-22T14:40:42.745Z,34.20
2017-08-22T14:43:11.825Z,33.60
2017-08-22T14:45:40.844Z,34.00
2017-08-22T14:48:10.561Z,31.80
2017-08-22T14:50:39.674Z,31.80
2017-08-22T14:53:08.740Z,34.50
2017-08-22T14:55:38.562Z,36.10
2017-08-22T14:58:08.441Z,37.10
2017-08-22T15:00:38.291Z,37.10
2017-08-22T15:03:07.361Z,38.60
2017-08-22T15:05:36.397Z,39.10
2017-08-22T15:08:05.562Z,39.10
2017-08-22T15:10:35.410Z,40.20
2017-08-22T15:13:04.689Z,40.10
2017-08-22T15:15:33.705Z,40.60
2017-08-22T15:18:02.791Z,40.80
2017-08-22T15:20:32.223Z,39.90
2017-08-22T15:23:01.775Z,40.40
2017-08-22T15:25:31.605Z,40.30
2017-08-22T15:28:00.731Z,40.30
2017-08-22T15:30:29.918Z,40.10
2017-08-22T15:32:59.100Z,39.80
2017-08-22T15:35:28.118Z,40.00
2017-08-22T15:37:58.637Z,39.80
2017-08-22T15:40:27.498Z,40.00
2017-08-22T15:42:56.652Z,40.50
2017-08-22T15:45:25.742Z,40.90
2017-08-22T15:47:54.791Z,39.90
2017-08-22T15:50:23.821Z,39.60
2017-08-22T15:52:52.683Z,39.60
2017-08-22T15:55:21.787Z,38.60
2017-08-22T15:57:50.830Z,37.50
2017-08-22T16:00:20.538Z,35.80
2017-08-22T16:02:53.737Z,35.80
2017-08-22T16:05:27.069Z,35.60
2017-08-22T16:07:57.239Z,36.20
2017-08-22T16:10:30.024Z,36.10
2017-08-22T16:12:59.570Z,36.00
2017-08-22T16:15:29.404Z,36.10
2017-08-22T16:17:58.677Z,36.20
2017-08-22T16:20:42.062Z,36.50
2017-08-22T16:23:11.997Z,36.00
2017-08-22T16:25:45.141Z,35.80
2017-08-22T16:28:14.570Z,36.10
2017-08-22T16:30:43.749Z,34.20
2017-08-22T16:33:13.869Z,33.90
2017-08-22T16:35:42.965Z,32.90
2017-08-22T16:38:12.450Z,34.30
2017-08-22T16:40:43.174Z,34.70
2017-08-22T16:43:13.741Z,35.90
2017-08-22T16:45:43.027Z,37.10
2017-08-22T16:48:13.983Z,38.50
2017-08-22T16:50:44.272Z,39.10
2017-08-22T16:53:14.215Z,40.00
2017-08-22T16:55:46.473Z,40.60
2017-08-22T16:58:17.422Z,40.00
2017-08-22T17:00:47.324Z,39.90
2017-08-22T17:03:18.684Z,39.70
2017-08-22T17:05:54.733Z,41.20
2017-08-22T17:08:38.181Z,41.20
2017-08-22T17:11:23.726Z,41.20
2017-08-22T17:13:56.876Z,42.20
2017-08-22T17:16:27.721Z,42.50
2017-08-22T17:18:58.538Z,43.10
2017-08-22T17:21:32.508Z,43.20
2017-08-22T17:24:03.515Z,43.70
2017-08-22T17:26:38.199Z,44.30
2017-08-22T17:29:11.123Z,44.30
2017-08-22T17:31:42.855Z,45.00
2017-08-22T17:34:13.876Z,46.00
2017-08-22T17:37:20.015Z,46.30
2017-08-22T17:39:52.493Z,47.00
2017-08-22T17:42:22.472Z,47.90
2017-08-22T17:44:51.349Z,48.40
2017-08-22T17:47:20.338Z,49.00
2017-08-22T17:49:50.002Z,49.40
2017-08-22T17:52:19.285Z,49.40
2017-08-22T17:54:48.503Z,49.90
2017-08-22T17:57:17.422Z,50.20
2017-08-22T17:59:47.058Z,50.90
2017-08-22T18:02:16.358Z,51.10
2017-08-22T18:04:45.539Z,51.80
2017-08-22T18:07:14.526Z,52.30
2017-08-22T18:09:44.351Z,52.80
2017-08-22T18:12:13.843Z,52.80
2017-08-22T18:14:43.058Z,53.30
2017-08-22T18:17:12.208Z,53.70
2017-08-22T18:19:41.480Z,54.10
2017-08-22T18:22:10.923Z,54.40
2017-08-22T18:24:41.139Z,55.00
2017-08-22T18:27:10.351Z,55.30
2017-08-22T18:29:39.669Z,55.80
2017-08-22T18:32:09.156Z,56.10
2017-08-22T18:34:38.571Z,56.40
2017-08-22T18:37:07.561Z,56.90
2017-08-22T18:39:36.957Z,57.20
2017-08-22T18:42:06.106Z,57.50
2017-08-22T18:44:35.543Z,57.80
2017-08-22T18:47:04.734Z,57.80
2017-08-22T18:49:35.796Z,58.10
2017-08-22T18:52:04.839Z,58.70
2017-08-22T18:54:33.824Z,58.50
2017-08-22T18:57:02.849Z,58.80
2017-08-22T18:59:32.736Z,59.00
2017-08-22T19:02:02.149Z,59.00
2017-08-22T19:04:31.294Z,58.60
2017-08-22T19:07:01.001Z,58.50
2017-08-22T19:09:30.268Z,58.70
2017-08-22T19:12:00.408Z,59.00
2017-08-22T19:14:30.222Z,59.00
2017-08-22T19:16:59.395Z,59.80
2017-08-22T19:19:37.419Z,59.70
2017-08-22T19:22:06.420Z,59.50
2017-08-22T19:24:36.242Z,60.50
2017-08-22T19:27:05.688Z,60.50
2017-08-22T19:29:34.682Z,60.60
2017-08-22T19:32:05.654Z,60.70
2017-08-22T19:34:34.563Z,61.40
2017-08-22T19:37:03.574Z,62.00
2017-08-22T19:39:33.330Z,62.30
2017-08-22T19:42:02.998Z,62.90
2017-08-22T19:44:32.793Z,63.40
2017-08-22T19:47:02.220Z,63.40
2017-08-22T19:49:32.226Z,63.50
2017-08-22T19:52:01.697Z,63.50
2017-08-22T19:54:31.619Z,63.60
2017-08-22T19:57:00.964Z,63.60
2017-08-22T19:59:30.226Z,64.30
2017-08-22T20:01:59.509Z,63.90
2017-08-22T20:04:28.588Z,63.60
2017-08-22T20:06:57.868Z,64.00
2017-08-22T20:09:27.563Z,63.60
2017-08-22T20:11:56.594Z,63.70
2017-08-22T20:14:26.706Z,63.70
2017-08-22T20:16:56.108Z,63.70
2017-08-22T20:19:25.690Z,64.20
2017-08-22T20:21:54.817Z,64.10
2017-08-22T20:24:25.951Z,64.50
2017-08-22T20:26:55.786Z,64.80
2017-08-22T20:29:25.413Z,64.90
2017-08-22T20:31:54.565Z,65.70
2017-08-22T20:34:24.506Z,65.80
2017-08-22T20:36:54.822Z,65.40
2017-08-22T20:39:25.169Z,65.90
2017-08-22T20:41:54.257Z,65.90
2017-08-22T20:44:24.034Z,66.10
2017-08-22T20:46:53.114Z,66.00
2017-08-22T20:49:22.663Z,66.00
2017-08-22T20:51:51.527Z,66.10
2017-08-22T20:54:20.364Z,66.50
2017-08-22T20:56:49.178Z,66.70
2017-08-22T20:59:17.986Z,66.90
2017-08-22T21:01:46.971Z,67.40
2017-08-22T21:04:15.962Z,67.30
2017-08-22T21:06:44.857Z,67.40
2017-08-22T21:09:13.700Z,67.60
2017-08-22T21:11:42.761Z,67.70
2017-08-22T21:14:12.489Z,68.00
2017-08-22T21:16:41.487Z,67.90
2017-08-22T21:19:10.717Z,67.70
2017-08-22T21:21:39.553Z,68.10
2017-08-22T21:24:09.210Z,68.10
2017-08-22T21:26:38.009Z,68.00
2017-08-22T21:29:06.924Z,68.00
2017-08-22T21:31:36.134Z,68.10
2017-08-22T21:34:05.888Z,68.70
2017-08-22T21:36:34.753Z,68.70
2017-08-22T21:39:04.895Z,69.00
2017-08-22T21:41:34.003Z,69.00
2017-08-22T21:44:03.879Z,69.00
2017-08-22T21:46:33.593Z,69.00
2017-08-22T21:49:02.833Z,69.10
2017-08-22T21:51:32.190Z,69.40
2017-08-22T21:54:01.238Z,69.60
2017-08-22T21:56:30.306Z,69.50
2017-08-22T21:58:59.677Z,69.30
2017-08-22T22:01:29.143Z,69.50
2017-08-22T22:03:59.287Z,70.10
2017-08-22T22:06:28.357Z,70.00
2017-08-22T22:08:58.426Z,69.70
2017-08-22T22:11:27.570Z,69.70
2017-08-22T22:13:57.274Z,69.90
2017-08-22T22:16:26.181Z,69.80
2017-08-22T22:18:55.842Z,69.90
2017-08-22T22:21:25.028Z,69.90
2017-08-22T22:23:54.382Z,69.70
2017-08-22T22:26:24.277Z,70.10
2017-08-22T22:28:53.316Z,70.00
2017-08-22T22:31:22.550Z,69.80
2017-08-22T22:33:51.653Z,69.60
2017-08-22T22:36:20.702Z,69.90
2017-08-22T22:38:49.735Z,70.00
2017-08-22T22:41:19.449Z,70.00
2017-08-22T22:43:49.012Z,70.10
2017-08-22T22:46:17.891Z,69.90
2017-08-22T22:48:47.064Z,70.00
2017-08-22T22:51:16.689Z,69.40
2017-08-22T22:53:46.145Z,69.30
2017-08-22T22:56:15.134Z,69.20
2017-08-22T22:58:43.920Z,68.80
2017-08-22T23:01:12.728Z,69.00
2017-08-22T23:03:42.371Z,68.60
2017-08-22T23:06:11.696Z,68.50
2017-08-22T23:08:40.493Z,68.70
2017-08-22T23:11:09.342Z,68.40
2017-08-22T23:13:38.205Z,68.60
2017-08-22T23:16:08.072Z,68.10
2017-08-22T23:18:36.948Z,68.10
2017-08-22T23:21:05.797Z,68.20
2017-08-22T23:23:35.532Z,68.30
2017-08-22T23:26:04.330Z,68.30
2017-08-22T23:28:33.132Z,68.40
2017-08-22T23:31:01.911Z,68.10
2017-08-22T23:33:30.892Z,68.10
2017-08-22T23:36:01.233Z,68.20
2017-08-22T23:38:30.366Z,68.20
2017-08-22T23:40:59.380Z,68.00
2017-08-22T23:43:28.366Z,68.30
2017-08-22T23:45:57.415Z,68.30
2017-08-22T23:48:26.899Z,68.20
2017-08-22T23:50:56.636Z,68.20
2017-08-22T23:53:25.913Z,68.20
2017-08-22T23:55:54.890Z,68.50
2017-08-22T23:58:23.979Z,68.30
